Time Latitude Longitude Accuracy (66% radius in meters) Altitude (meters) Speed (km/hour) Bearing (degrees) Battery (%) GPS flag
13:00:02 57.203905 60.118343 4 325 1.7267600297928 123.80000305176 74 0 delete
12:59:52 57.203905 60.118343 4 325 1.7267600297928 123.80000305176 74 0 delete
12:59:41 57.203905 60.118343 4 325 1.7267600297928 123.80000305176 74 0 delete
11:59:24 57.203905 60.118343 4 325 1.7267600297928 123.80000305176 74 1 delete
11:59:19 57.203963 60.118215 3 324 1.5219067335129 133.10000610352 74 1 delete
12:59:10 57.204044 60.118108 4 330 2.6853864192963 139.5 74 0 delete
12:59:00 57.204044 60.118108 4 330 2.6853864192963 139.5 74 0 delete
11:58:46 57.204044 60.118108 4 330 2.6853864192963 139.5 74 1 delete
11:58:42 57.204129 60.117992 3 330 3.1683592796326 147.30000305176 74 1 delete
11:58:38 57.204214 60.117869 3 329 3.5730240345001 137.19999694824 74 1 delete
11:58:35 57.204279 60.117746 3 329 3.60702085495 133.80000305176 74 1 delete
11:58:32 57.204351 60.117631 3 329 3.5057096481323 149.89999389648 74 1 delete
11:58:28 57.204453 60.117520 3 330 3.9028837680817 150.80000305176 74 1 delete
11:58:25 57.204553 60.117446 3 330 3.8780663013458 159.30000305176 74 1 delete
11:58:22 57.204662 60.117412 3 330 4.7501683235168 180.60000610352 74 1 delete
11:58:19 57.204783 60.117398 3 330 4.0623393058777 191 74 1 delete
11:58:14 57.204873 60.117336 3 328 0.69892770051956 71.300003051758 74 1 delete
11:58:06 57.204836 60.117175 3 326 1.7857211828232 71.599998474121 74 1 delete
11:58:00 57.204787 60.116996 3 324 1.5248606204987 49.5 74 1 delete
11:57:54 57.204720 60.116825 3 324 1.3991782665253 78.199996948242 74 1 delete
11:57:48 57.204669 60.116672 4 322 2.2085740566254 47.400001525879 74 1 delete
11:57:42 57.204590 60.116522 3 315 2.6146702766418 76.199996948242 74 1 delete
11:57:37 57.204556 60.116339 3 313 1.3110301494598 76 74 1 delete
11:57:31 57.204482 60.116244 3 316 2.1900229454041 352.79998779297 74 1 delete
11:57:27 57.204388 60.116315 4 321 2.3256182670593 293.29998779297 74 1 delete
12:57:27 57.204332 60.116480 3 317 1.528953909874 356.10000610352 74 0 delete
11:57:15 57.204332 60.116480 3 317 1.528953909874 356.10000610352 74 1 delete
11:57:10 57.204247 60.116565 3 320 2.500599861145 331.60000610352 74 1 delete
11:57:06 57.204195 60.116720 3 319 1.6056150197983 339.79998779297 74 1 delete
11:57:02 57.204092 60.116705 3 322 1.4903019666672 13.199999809265 74 1 delete
11:56:58 57.204001 60.116685 3 321 3.6100552082062 4 74 1 delete
11:56:55 57.203904 60.116676 3 323 3.9850218296051 0.60000002384186 74 1 delete
11:56:47 57.203692 60.116620 3 325 2.7853906154633 357.79998779297 74 1 delete
11:56:43 57.203630 60.116437 4 330 2.5372819900513 75.099998474121 74 1 delete
11:56:39 57.203607 60.116263 3 328 2.6534693241119 77.199996948242 74 1 delete
11:56:35 57.203581 60.116081 3 325 2.9806208610535 73.400001525879 74 1 delete
11:56:31 57.203529 60.115894 4 325 3.0242023468018 50.900001525879 74 1 delete
11:56:27 57.203450 60.115761 4 324 3.8685526847839 38.099998474121 74 1 delete
11:56:24 57.203373 60.115649 3 322 4.8856525421143 42.400001525879 74 1 delete
11:56:21 57.203291 60.115472 3 322 5.7643904685974 49.5 74 1 delete
11:56:19 57.203236 60.115331 3 324 5.2511520385742 63.700000762939 74 1 delete
11:56:17 57.203198 60.115174 4 325 3.7952601909637 56.5 74 1 delete
11:56:14 57.203153 60.115008 3 326 3.4786779880524 63 74 1 delete
11:56:10 57.203106 60.114821 3 326 2.0769689083099 73.699996948242 74 1 delete
11:56:00 57.203145 60.114639 3 330 1.7174689769745 137.19999694824 74 1 delete
11:55:54 57.203191 60.114451 4 332 2.1378493309021 85.699996948242 74 1 delete
11:55:49 57.203229 60.114276 3 334 2.0219297409058 114.90000152588 74 1 delete
11:55:42 57.203306 60.114174 3 333 1.8931983709335 121.30000305176 74 1 delete
11:55:29 57.203403 60.114122 3 333 1.3616534471512 186.39999389648 74 1 delete
11:55:22 57.203486 60.114230 3 332 1.711724281311 216.5 74 1 delete